createdAt,value
2022-11-13T00:02:50.124Z,35.45
2022-11-13T00:08:10.517Z,34.63
2022-11-13T00:13:30.891Z,43.00
2022-11-13T00:18:51.299Z,39.50
2022-11-13T00:24:11.528Z,34.38
2022-11-13T00:29:31.406Z,29.60
2022-11-13T00:34:51.547Z,32.35
2022-11-13T00:40:11.977Z,31.38
2022-11-13T00:45:32.180Z,28.90
2022-11-13T00:50:52.997Z,30.70
2022-11-13T00:56:12.724Z,36.33
2022-11-13T01:01:32.664Z,31.10
2022-11-13T01:06:52.898Z,34.95
2022-11-13T01:12:13.018Z,34.75
2022-11-13T01:17:33.219Z,34.10
2022-11-13T01:22:53.778Z,37.77
2022-11-13T01:28:13.687Z,31.65
2022-11-13T01:33:34.143Z,30.58
2022-11-13T01:38:54.556Z,32.20
2022-11-13T01:44:17.043Z,32.65
2022-11-13T01:49:39.180Z,30.42
2022-11-13T01:55:03.897Z,33.22
2022-11-13T02:00:23.904Z,28.38
2022-11-13T02:05:44.092Z,24.90
2022-11-13T02:11:04.408Z,26.67
2022-11-13T02:16:24.474Z,23.33
2022-11-13T02:21:52.804Z,21.23
2022-11-13T02:27:20.521Z,21.73
2022-11-13T02:32:48.499Z,21.33
2022-11-13T02:38:08.811Z,21.00
2022-11-13T02:43:28.662Z,21.20
2022-11-13T02:48:48.994Z,23.70
2022-11-13T02:54:11.770Z,23.48
2022-11-13T02:59:35.668Z,22.88
2022-11-13T03:05:13.279Z,20.80
2022-11-13T03:10:33.343Z,20.52
2022-11-13T03:15:53.317Z,19.70
2022-11-13T03:21:15.953Z,22.63
2022-11-13T03:26:36.399Z,20.45
2022-11-13T03:31:56.441Z,20.35
2022-11-13T03:37:16.777Z,19.05
2022-11-13T03:42:36.670Z,20.10
2022-11-13T03:47:56.780Z,19.60
2022-11-13T03:53:16.646Z,19.85
2022-11-13T03:58:40.132Z,20.10
2022-11-13T04:04:00.566Z,17.25
2022-11-13T04:09:20.784Z,17.33
2022-11-13T04:14:40.764Z,19.75
2022-11-13T04:20:01.009Z,15.88
2022-11-13T04:25:21.091Z,17.05
2022-11-13T04:30:41.304Z,16.77
2022-11-13T04:36:01.971Z,15.45
2022-11-13T04:41:40.367Z,17.13
2022-11-13T04:47:00.780Z,20.23
2022-11-13T04:52:20.947Z,17.70
2022-11-13T04:57:41.500Z,15.95
2022-11-13T05:03:01.262Z,19.52
2022-11-13T05:08:21.472Z,17.30
2022-11-13T05:13:41.613Z,17.70
2022-11-13T05:19:06.759Z,14.32
2022-11-13T05:24:26.981Z,18.13
2022-11-13T05:29:46.962Z,16.80
2022-11-13T05:35:07.589Z,19.25
2022-11-13T05:40:29.217Z,17.03
2022-11-13T05:45:49.459Z,15.05
2022-11-13T05:51:12.066Z,16.00
2022-11-13T05:56:34.901Z,17.30
2022-11-13T06:01:54.877Z,17.40
2022-11-13T06:07:15.160Z,18.98
2022-11-13T06:12:35.219Z,15.35
2022-11-13T06:17:55.416Z,16.60
2022-11-13T06:23:15.584Z,17.33
2022-11-13T06:28:36.278Z,20.05
2022-11-13T06:33:58.967Z,16.23
2022-11-13T06:39:19.031Z,16.65
2022-11-13T06:44:39.256Z,15.05
2022-11-13T06:49:59.751Z,18.20
2022-11-13T06:55:19.995Z,15.43
2022-11-13T07:00:41.683Z,15.43
2022-11-13T07:06:07.816Z,18.58
2022-11-13T07:11:27.706Z,14.55
2022-11-13T07:17:08.535Z,15.90
2022-11-13T07:22:30.586Z,19.00
2022-11-13T07:27:50.931Z,17.05
2022-11-13T07:33:10.860Z,15.20
2022-11-13T07:38:31.262Z,22.00
2022-11-13T07:43:51.894Z,16.88
2022-11-13T07:49:12.063Z,19.55
2022-11-13T07:54:32.319Z,18.38
2022-11-13T07:59:52.657Z,21.70
2022-11-13T08:05:13.968Z,17.42
2022-11-13T08:10:34.335Z,19.02
2022-11-13T08:15:54.153Z,19.45
2022-11-13T08:21:15.202Z,19.00
2022-11-13T08:26:38.382Z,18.90
2022-11-13T08:31:58.394Z,23.20
2022-11-13T08:37:18.576Z,21.23
2022-11-13T08:42:38.620Z,18.10
2022-11-13T08:48:01.263Z,20.10
2022-11-13T08:53:22.683Z,19.52
2022-11-13T08:58:42.742Z,19.17
2022-11-13T09:04:02.837Z,16.38
2022-11-13T09:09:23.359Z,15.70
2022-11-13T09:14:43.217Z,19.20
2022-11-13T09:20:05.400Z,20.75
2022-11-13T09:25:27.970Z,18.67
2022-11-13T09:30:50.371Z,17.88
2022-11-13T09:36:15.424Z,20.90
2022-11-13T09:41:44.132Z,20.40
2022-11-13T09:47:27.967Z,19.70
2022-11-13T09:52:49.203Z,16.58
2022-11-13T09:58:26.379Z,15.02
2022-11-13T10:04:03.288Z,17.33
2022-11-13T10:09:36.200Z,17.73
2022-11-13T10:15:02.040Z,18.85
2022-11-13T10:20:39.776Z,16.92
2022-11-13T10:26:13.172Z,16.20
2022-11-13T10:31:47.876Z,13.20
2022-11-13T10:37:21.011Z,17.15
2022-11-13T10:42:42.011Z,18.40
2022-11-13T10:48:04.954Z,17.77
2022-11-13T10:53:28.582Z,17.73
2022-11-13T10:59:12.185Z,19.40
2022-11-13T11:04:32.778Z,18.83
2022-11-13T11:09:53.145Z,12.32
2022-11-13T11:15:37.064Z,15.43
2022-11-13T11:20:59.646Z,13.73
2022-11-13T11:26:40.790Z,13.70
2022-11-13T11:32:23.163Z,12.95
2022-11-13T11:38:09.051Z,13.20
2022-11-13T11:43:43.398Z,12.60
2022-11-13T11:49:03.358Z,10.85
2022-11-13T11:54:37.898Z,12.48
2022-11-13T12:00:13.293Z,11.80
2022-11-13T12:06:01.317Z,26.48
2022-11-13T12:11:28.831Z,12.63
2022-11-13T12:17:15.970Z,12.52
2022-11-13T12:22:43.619Z,13.93
2022-11-13T12:28:28.202Z,13.50
2022-11-13T12:34:07.572Z,13.95
2022-11-13T12:39:31.890Z,10.02
2022-11-13T12:45:00.898Z,11.10
2022-11-13T12:50:32.411Z,12.13
2022-11-13T13:01:22.033Z,10.05
2022-11-13T13:07:00.863Z,9.18
2022-11-13T13:12:40.215Z,11.80
2022-11-13T13:18:02.930Z,10.38
2022-11-13T13:23:31.439Z,8.18
2022-11-13T13:28:56.504Z,9.60
2022-11-13T13:34:19.375Z,8.40
2022-11-13T13:39:59.270Z,11.77
2022-11-13T13:45:36.461Z,7.55
2022-11-13T13:50:58.651Z,10.98
2022-11-13T13:56:20.940Z,9.55
2022-11-13T14:01:41.323Z,8.82
2022-11-13T14:07:02.562Z,8.23
2022-11-13T14:12:23.311Z,9.90
2022-11-13T14:17:44.652Z,8.93
2022-11-13T14:23:05.262Z,8.18
2022-11-13T14:28:28.381Z,9.30
2022-11-13T14:33:50.121Z,10.32
2022-11-13T14:39:30.042Z,10.82
2022-11-13T14:44:49.967Z,9.55
2022-11-13T14:50:33.521Z,10.18
2022-11-13T14:55:56.206Z,11.30
2022-11-13T15:01:24.711Z,11.00
2022-11-13T15:06:45.124Z,12.18
2022-11-13T15:12:05.235Z,10.73
2022-11-13T15:17:25.698Z,11.07
2022-11-13T15:22:46.011Z,13.30
2022-11-13T15:28:06.218Z,19.20
2022-11-13T15:33:26.404Z,17.98
2022-11-13T15:38:47.086Z,19.13
2022-11-13T15:44:13.174Z,15.98
2022-11-13T15:49:33.581Z,20.50
2022-11-13T15:54:53.613Z,15.38
2022-11-13T16:00:18.959Z,16.75
2022-11-13T16:05:39.053Z,16.20
2022-11-13T16:10:59.294Z,15.95
2022-11-13T16:16:23.525Z,14.20
2022-11-13T16:21:43.574Z,16.35
2022-11-13T16:27:03.679Z,14.23
2022-11-13T16:32:23.720Z,14.50
2022-11-13T16:37:44.260Z,19.48
2022-11-13T16:43:04.098Z,17.70
2022-11-13T16:48:24.382Z,16.95
2022-11-13T16:53:44.749Z,19.65
2022-11-13T16:59:05.078Z,22.45
2022-11-13T17:04:25.130Z,29.38
2022-11-13T17:09:45.717Z,35.25
2022-11-13T17:15:06.486Z,32.92
2022-11-13T17:20:26.984Z,29.17
2022-11-13T17:25:47.835Z,25.20
2022-11-13T17:31:12.522Z,30.70
2022-11-13T17:36:32.556Z,28.38
2022-11-13T17:41:53.160Z,31.85
2022-11-13T17:47:13.130Z,34.63
2022-11-13T17:52:33.315Z,34.53
2022-11-13T17:57:53.732Z,32.95
2022-11-13T18:03:13.873Z,30.52
2022-11-13T18:08:34.420Z,28.58
2022-11-13T18:13:54.608Z,32.72
2022-11-13T18:19:14.971Z,38.67
2022-11-13T18:24:35.167Z,31.92
2022-11-13T18:29:55.767Z,33.50
2022-11-13T18:35:15.770Z,35.70
2022-11-13T18:40:36.597Z,33.65
2022-11-13T18:46:07.351Z,36.53
2022-11-13T18:51:31.796Z,36.58
2022-11-13T18:56:52.116Z,42.90
2022-11-13T19:02:13.187Z,40.67
2022-11-13T19:07:33.442Z,47.25
2022-11-13T19:12:54.716Z,62.08
2022-11-13T19:23:35.850Z,71.18
2022-11-13T19:34:17.230Z,67.25
2022-11-13T19:39:37.393Z,64.88
2022-11-13T19:44:57.704Z,57.85
2022-11-13T19:50:17.987Z,54.03
2022-11-13T19:55:38.250Z,46.90
2022-11-13T20:00:58.940Z,41.38
2022-11-13T20:06:19.379Z,44.30
2022-11-13T20:11:39.455Z,43.40
2022-11-13T20:16:59.663Z,39.08
2022-11-13T20:22:19.711Z,44.42
2022-11-13T20:27:45.945Z,40.92
2022-11-13T20:33:07.534Z,42.67
2022-11-13T20:38:29.143Z,42.40
2022-11-13T20:43:50.436Z,38.75
2022-11-13T20:49:10.738Z,32.75
2022-11-13T20:54:30.946Z,33.60
2022-11-13T20:59:50.949Z,30.42
2022-11-13T21:05:11.091Z,31.08
2022-11-13T21:10:31.307Z,27.02
2022-11-13T21:15:51.658Z,30.08
2022-11-13T21:21:18.675Z,30.17
2022-11-13T21:26:38.907Z,28.48
2022-11-13T21:31:58.861Z,30.08
2022-11-13T21:37:19.554Z,29.50
2022-11-13T21:42:39.886Z,31.43
2022-11-13T21:47:59.699Z,27.75
2022-11-13T21:53:20.014Z,25.63
2022-11-13T21:58:40.611Z,30.90
2022-11-13T22:04:00.863Z,28.63
2022-11-13T22:09:24.108Z,27.50
2022-11-13T22:14:44.341Z,28.83
2022-11-13T22:20:04.805Z,30.23
2022-11-13T22:25:24.997Z,30.10
2022-11-13T22:30:46.246Z,27.58
2022-11-13T22:36:08.414Z,32.47
2022-11-13T22:41:31.062Z,28.10
2022-11-13T22:46:51.113Z,29.30
2022-11-13T22:52:10.974Z,32.13
2022-11-13T22:57:31.869Z,30.13
2022-11-13T23:02:52.208Z,28.63
2022-11-13T23:08:12.486Z,27.10
2022-11-13T23:13:32.723Z,28.65
2022-11-13T23:18:54.683Z,26.33
2022-11-13T23:24:14.883Z,27.77
2022-11-13T23:29:34.861Z,28.10
2022-11-13T23:34:59.519Z,26.80
2022-11-13T23:40:19.928Z,23.17
2022-11-13T23:45:40.099Z,28.45
2022-11-13T23:51:01.631Z,22.38
2022-11-13T23:56:21.594Z,23.90
